Time;durP1;ratioP1;P1;durP2;ratioP2;P2;SDS_P1;SDS_P2;PMS_P1;PMS_P2;Temp;Humidity;BMP_temperature;BMP_pressure;BME280_temperature;BME280_humidity;BME280_pressure;Samples;Min_cycle;Max_cycle;Signal;HPM_P1;HPM_P2
2022/12/24 00:00:30;;;;;;;0.25;0.25;;;;;;;;;;5027063;28;20029;-71
2022/12/24 00:02:56;;;;;;;0.20;0.20;;;;;;;;;;5028169;28;20495;-71
2022/12/24 00:05:21;;;;;;;0.20;0.20;;;;;;;;;;5032507;28;20036;-70
2022/12/24 00:07:47;;;;;;;0.10;0.10;;;;;;;;;;5032613;28;20464;-71
2022/12/24 00:10:12;;;;;;;0.10;0.10;;;;;;;;;;5034943;28;20025;-70
2022/12/24 00:12:38;;;;;;;0.77;0.77;;;;;;;;;;5030516;28;20067;-71
2022/12/24 00:15:04;;;;;;;0.20;0.20;;;;;;;;;;5030317;28;20104;-71
2022/12/24 00:17:30;;;;;;;0.20;0.20;;;;;;;;;;5035453;28;20052;-71
2022/12/24 00:19:55;;;;;;;0.32;0.32;;;;;;;;;;5036006;28;20022;-72
2022/12/24 00:22:21;;;;;;;0.10;0.10;;;;;;;;;;5035392;28;20064;-71
2022/12/24 00:24:46;;;;;;;2.08;1.98;;;;;;;;;;5042685;28;20503;-71
2022/12/24 00:27:12;;;;;;;0.10;0.10;;;;;;;;;;5044624;28;20639;-72
2022/12/24 00:29:38;;;;;;;0.70;0.70;;;;;;;;;;5037191;28;20109;-73
2022/12/24 00:32:08;;;;;;;0.10;0.10;;;;;;;;;;5026214;28;20112;-72
2022/12/24 00:34:37;;;;;;;0.10;0.10;;;;;;;;;;5029502;28;20060;-71
2022/12/24 00:37:03;;;;;;;0.22;0.22;;;;;;;;;;5014901;28;20030;-71
2022/12/24 00:39:29;;;;;;;2.67;2.53;;;;;;;;;;5030573;28;20021;-72
2022/12/24 00:41:54;;;;;;;1.15;1.15;;;;;;;;;;5037685;28;20025;-72
2022/12/24 00:44:20;;;;;;;0.10;0.10;;;;;;;;;;5031439;28;20004;-72
2022/12/24 00:46:45;;;;;;;0.40;0.40;;;;;;;;;;5035805;28;20013;-70
2022/12/24 00:49:11;;;;;;;0.32;0.32;;;;;;;;;;5034930;28;20044;-71
2022/12/24 00:51:37;;;;;;;0.20;0.20;;;;;;;;;;5015672;28;20400;-71
2022/12/24 00:54:02;;;;;;;0.10;0.10;;;;;;;;;;5015598;28;20025;-70
2022/12/24 00:56:28;;;;;;;0.10;0.10;;;;;;;;;;5015273;28;20025;-71
2022/12/24 00:58:54;;;;;;;0.10;0.10;;;;;;;;;;5024466;28;20025;-70
2022/12/24 01:01:20;;;;;;;0.20;0.20;;;;;;;;;;5035228;28;20076;-71
2022/12/24 01:03:45;;;;;;;0.30;0.30;;;;;;;;;;5034969;28;20037;-71
2022/12/24 01:06:14;;;;;;;0.85;0.85;;;;;;;;;;5035708;28;20045;-70
2022/12/24 01:08:40;;;;;;;4.90;3.42;;;;;;;;;;5035023;28;20025;-70
2022/12/24 01:11:06;;;;;;;0.20;0.20;;;;;;;;;;5035146;28;20159;-71
2022/12/24 01:13:31;;;;;;;0.22;0.22;;;;;;;;;;5035085;28;20032;-70
2022/12/24 01:15:57;;;;;;;0.20;0.20;;;;;;;;;;5035337;28;20025;-70
2022/12/24 01:18:23;;;;;;;0.10;0.10;;;;;;;;;;5035038;28;20049;-71
2022/12/24 01:20:56;;;;;;;0.10;0.10;;;;;;;;;;5033580;28;20036;-70
2022/12/24 01:23:21;;;;;;;0.30;0.30;;;;;;;;;;5033718;28;20053;-70
2022/12/24 01:25:46;;;;;;;1.58;1.48;;;;;;;;;;5034812;28;20025;-70
2022/12/24 01:28:12;;;;;;;0.10;0.10;;;;;;;;;;5033593;28;20503;-70
2022/12/24 01:30:39;;;;;;;0.10;0.10;;;;;;;;;;5034630;28;20036;-71
2022/12/24 01:33:04;;;;;;;0.40;0.40;;;;;;;;;;5034460;28;20071;-71
2022/12/24 01:35:30;;;;;;;0.60;0.60;;;;;;;;;;5033366;28;20025;-71
2022/12/24 01:37:55;;;;;;;0.30;0.30;;;;;;;;;;5033468;28;20036;-70
2022/12/24 01:43:22;;;;;;;0.65;0.65;;;;;;;;;;5034445;28;20045;-70
2022/12/24 01:46:01;;;;;;;0.85;0.85;;;;;;;;;;5033208;28;20060;-70
2022/12/24 01:48:32;;;;;;;0.17;0.17;;;;;;;;;;5034506;28;20075;-70
2022/12/24 01:51:21;;;;;;;0.65;0.65;;;;;;;;;;5034463;28;20033;-70
2022/12/24 01:53:48;;;;;;;0.10;0.10;;;;;;;;;;5029072;28;20041;-71
2022/12/24 01:56:14;;;;;;;0.10;0.10;;;;;;;;;;5034063;28;20116;-72
2022/12/24 01:58:42;;;;;;;1.25;1.25;;;;;;;;;;5034203;28;20076;-71
2022/12/24 02:01:08;;;;;;;1.33;1.30;;;;;;;;;;5032979;28;20029;-71
2022/12/24 02:03:33;;;;;;;0.20;0.20;;;;;;;;;;5033882;28;20056;-71
2022/12/24 02:05:59;;;;;;;0.30;0.30;;;;;;;;;;5034098;28;20025;-71
2022/12/24 02:08:38;;;;;;;0.30;0.30;;;;;;;;;;5032441;28;20078;-71
2022/12/24 02:11:20;;;;;;;0.30;0.30;;;;;;;;;;5032921;28;20030;-71
2022/12/24 02:13:54;;;;;;;0.75;0.75;;;;;;;;;;5034016;28;20037;-71
2022/12/24 02:16:38;;;;;;;1.67;1.60;;;;;;;;;;5032640;28;20389;-71
2022/12/24 02:19:15;;;;;;;0.20;0.20;;;;;;;;;;5033356;28;20041;-72
2022/12/24 02:21:41;;;;;;;0.10;0.10;;;;;;;;;;5033963;28;20034;-72
2022/12/24 02:24:20;;;;;;;0.32;0.32;;;;;;;;;;5033403;28;20036;-71
2022/12/24 02:27:15;;;;;;;0.13;0.13;;;;;;;;;;5048985;28;20120;-71
2022/12/24 02:29:43;;;;;;;0.10;0.10;;;;;;;;;;5029016;28;20124;-72
2022/12/24 02:32:22;;;;;;;0.10;0.10;;;;;;;;;;5033596;28;20032;-71
2022/12/24 02:34:51;;;;;;;0.20;0.20;;;;;;;;;;5033703;28;20080;-72
2022/12/24 02:37:29;;;;;;;2.90;1.95;;;;;;;;;;5034082;28;20052;-72
2022/12/24 02:39:58;;;;;;;0.20;0.20;;;;;;;;;;5033417;28;20083;-72
2022/12/24 02:42:26;;;;;;;0.13;0.13;;;;;;;;;;5032176;28;20049;-72
2022/12/24 02:44:51;;;;;;;0.10;0.10;;;;;;;;;;5033454;28;20455;-72
2022/12/24 02:47:17;;;;;;;0.60;0.60;;;;;;;;;;5033777;28;20108;-72
2022/12/24 02:49:44;;;;;;;0.10;0.10;;;;;;;;;;5033373;28;20063;-72
2022/12/24 02:52:29;;;;;;;0.10;0.10;;;;;;;;;;5033297;28;20046;-71
2022/12/24 02:54:56;;;;;;;0.10;0.10;;;;;;;;;;5033289;28;20045;-71
2022/12/24 02:57:37;;;;;;;0.10;0.10;;;;;;;;;;5033402;28;20041;-72
2022/12/24 03:00:02;;;;;;;0.10;0.10;;;;;;;;;;5033126;28;20021;-71
2022/12/24 03:02:46;;;;;;;0.57;0.57;;;;;;;;;;5032065;28;20101;-71
2022/12/24 03:05:12;;;;;;;0.10;0.10;;;;;;;;;;5032773;28;20060;-71
2022/12/24 03:07:43;;;;;;;1.85;1.05;;;;;;;;;;5033377;28;20038;-71
2022/12/24 03:10:08;;;;;;;1.73;1.65;;;;;;;;;;5033053;28;20021;-71
2022/12/24 03:12:39;;;;;;;0.10;0.10;;;;;;;;;;5033206;28;20035;-71
2022/12/24 03:15:05;;;;;;;0.10;0.10;;;;;;;;;;5034571;28;20370;-71
2022/12/24 03:17:33;;;;;;;0.55;0.55;;;;;;;;;;5043752;28;20076;-71
2022/12/24 03:19:59;;;;;;;0.17;0.17;;;;;;;;;;5052909;28;20115;-71
2022/12/24 03:22:25;;;;;;;0.20;0.20;;;;;;;;;;5051598;28;20119;-70
2022/12/24 03:24:50;;;;;;;1.13;1.13;;;;;;;;;;5025516;28;20036;-70
2022/12/24 03:27:16;;;;;;;0.95;0.95;;;;;;;;;;5042425;28;20025;-71
2022/12/24 03:29:41;;;;;;;1.00;1.00;;;;;;;;;;5047532;28;20025;-71
2022/12/24 03:32:07;;;;;;;0.20;0.20;;;;;;;;;;5032798;28;20080;-72
2022/12/24 03:34:33;;;;;;;0.52;0.52;;;;;;;;;;5031691;28;20105;-71
2022/12/24 03:36:58;;;;;;;0.35;0.35;;;;;;;;;;5032911;28;20030;-72
2022/12/24 03:39:23;;;;;;;0.35;0.35;;;;;;;;;;5032922;28;20025;-70
2022/12/24 03:41:49;;;;;;;0.57;0.57;;;;;;;;;;5033224;28;20040;-70
2022/12/24 03:44:14;;;;;;;1.60;1.58;;;;;;;;;;5032733;28;20036;-72
2022/12/24 03:46:40;;;;;;;0.10;0.10;;;;;;;;;;5031576;28;20075;-71
2022/12/24 03:49:05;;;;;;;0.10;0.10;;;;;;;;;;5031379;28;20481;-71
2022/12/24 03:51:32;;;;;;;8.40;7.82;;;;;;;;;;5032717;28;20037;-71
2022/12/24 03:53:58;;;;;;;0.30;0.30;;;;;;;;;;5032880;28;20049;-70
2022/12/24 03:56:24;;;;;;;0.55;0.55;;;;;;;;;;5031640;28;20057;-71
2022/12/24 03:58:49;;;;;;;1.08;1.08;;;;;;;;;;5031646;28;20090;-71
2022/12/24 04:01:15;;;;;;;0.10;0.10;;;;;;;;;;5032953;28;20112;-71
2022/12/24 04:03:41;;;;;;;0.52;0.52;;;;;;;;;;5026664;28;20103;-71
2022/12/24 04:06:13;;;;;;;0.10;0.10;;;;;;;;;;5028744;28;20034;-72
2022/12/24 04:08:39;;;;;;;0.15;0.15;;;;;;;;;;5027836;28;20021;-71
2022/12/24 04:11:05;;;;;;;0.28;0.28;;;;;;;;;;5029068;28;20088;-71
2022/12/24 04:13:30;;;;;;;0.30;0.30;;;;;;;;;;5028803;28;20061;-71
2022/12/24 04:15:58;;;;;;;0.10;0.10;;;;;;;;;;5028785;28;20477;-71
2022/12/24 04:18:23;;;;;;;0.10;0.10;;;;;;;;;;5028431;28;20049;-70
2022/12/24 04:20:48;;;;;;;2.08;1.98;;;;;;;;;;5047737;28;20095;-71
2022/12/24 04:23:14;;;;;;;0.43;0.43;;;;;;;;;;5032291;28;20049;-71
2022/12/24 04:25:39;;;;;;;0.10;0.10;;;;;;;;;;5032419;28;20037;-72
2022/12/24 04:28:05;;;;;;;1.23;1.23;;;;;;;;;;5032069;28;20118;-72
2022/12/24 04:30:30;;;;;;;0.20;0.20;;;;;;;;;;5031822;28;20209;-71
2022/12/24 04:32:55;;;;;;;0.73;0.73;;;;;;;;;;5031842;28;20515;-72
2022/12/24 04:35:21;;;;;;;0.10;0.10;;;;;;;;;;5031840;28;20033;-72
2022/12/24 04:37:46;;;;;;;0.38;0.38;;;;;;;;;;5032458;28;20026;-72
2022/12/24 04:40:12;;;;;;;0.10;0.10;;;;;;;;;;5031930;28;20777;-72
2022/12/24 04:42:37;;;;;;;0.10;0.10;;;;;;;;;;5030632;28;20120;-72
2022/12/24 04:45:03;;;;;;;0.17;0.17;;;;;;;;;;5031771;28;20030;-73
2022/12/24 04:47:28;;;;;;;0.10;0.10;;;;;;;;;;5031979;28;20465;-72
2022/12/24 04:49:54;;;;;;;0.10;0.10;;;;;;;;;;5031704;28;20043;-72
2022/12/24 04:52:19;;;;;;;0.77;0.77;;;;;;;;;;5031712;28;20113;-73
2022/12/24 04:54:45;;;;;;;0.15;0.15;;;;;;;;;;5031858;28;20026;-71
2022/12/24 04:57:10;;;;;;;0.20;0.20;;;;;;;;;;5013870;28;20084;-70
2022/12/24 04:59:35;;;;;;;0.10;0.10;;;;;;;;;;5031405;28;20099;-71
2022/12/24 05:02:01;;;;;;;0.10;0.10;;;;;;;;;;5031797;28;20068;-73
2022/12/24 05:04:26;;;;;;;1.27;1.17;;;;;;;;;;5031406;28;20033;-72
2022/12/24 05:06:52;;;;;;;0.10;0.10;;;;;;;;;;5031499;28;20029;-71
2022/12/24 05:09:17;;;;;;;0.10;0.10;;;;;;;;;;5031608;28;20026;-72
2022/12/24 05:11:43;;;;;;;0.10;0.10;;;;;;;;;;5031667;28;20129;-73
2022/12/24 05:14:08;;;;;;;0.20;0.20;;;;;;;;;;5031377;28;20043;-71
2022/12/24 05:16:34;;;;;;;0.20;0.20;;;;;;;;;;5031553;28;20376;-71
2022/12/24 05:18:59;;;;;;;0.10;0.10;;;;;;;;;;5030842;28;20064;-72
2022/12/24 05:21:24;;;;;;;0.10;0.10;;;;;;;;;;5031271;28;20057;-71
2022/12/24 05:26:36;;;;;;;0.10;0.10;;;;;;;;;;5030933;28;20116;-73
2022/12/24 05:29:02;;;;;;;0.10;0.10;;;;;;;;;;5031266;28;20065;-71
2022/12/24 05:31:29;;;;;;;0.10;0.10;;;;;;;;;;5030137;28;20125;-71
2022/12/24 05:33:55;;;;;;;0.10;0.10;;;;;;;;;;5031013;28;20029;-71
2022/12/24 05:36:21;;;;;;;0.43;0.43;;;;;;;;;;5028807;28;20036;-72
2022/12/24 05:38:46;;;;;;;0.20;0.20;;;;;;;;;;5029159;28;20025;-71
2022/12/24 05:41:12;;;;;;;0.52;0.52;;;;;;;;;;5029394;28;20044;-71
2022/12/24 05:43:38;;;;;;;0.20;0.20;;;;;;;;;;5030669;28;20033;-71
2022/12/24 05:46:05;;;;;;;0.10;0.10;;;;;;;;;;5030680;28;20025;-71
2022/12/24 05:48:30;;;;;;;0.52;0.52;;;;;;;;;;5030436;28;20030;-73
2022/12/24 05:50:56;;;;;;;0.10;0.10;;;;;;;;;;5029464;28;20128;-71
2022/12/24 05:53:22;;;;;;;0.10;0.10;;;;;;;;;;5029212;28;20120;-73
2022/12/24 05:55:48;;;;;;;0.10;0.10;;;;;;;;;;5029447;28;20029;-72
2022/12/24 05:58:13;;;;;;;2.63;2.50;;;;;;;;;;5030452;28;20075;-74
2022/12/24 06:00:39;;;;;;;0.10;0.10;;;;;;;;;;5031124;28;20021;-73
2022/12/24 06:03:04;;;;;;;0.75;0.75;;;;;;;;;;5029319;28;20049;-71
2022/12/24 06:05:30;;;;;;;0.10;0.10;;;;;;;;;;5030368;28;20029;-72
2022/12/24 06:07:55;;;;;;;0.20;0.20;;;;;;;;;;5028929;28;20033;-72
2022/12/24 06:10:21;;;;;;;0.10;0.10;;;;;;;;;;5029844;28;20548;-71
2022/12/24 06:12:46;;;;;;;1.58;1.48;;;;;;;;;;5030106;28;20036;-70
2022/12/24 06:15:12;;;;;;;0.13;0.13;;;;;;;;;;5029996;28;20022;-70
2022/12/24 06:17:37;;;;;;;0.20;0.20;;;;;;;;;;5029802;28;20744;-70
2022/12/24 06:20:03;;;;;;;0.20;0.20;;;;;;;;;;5029535;28;20044;-71
2022/12/24 06:22:29;;;;;;;2.28;2.17;;;;;;;;;;5029816;28;20030;-70
2022/12/24 06:24:54;;;;;;;0.10;0.10;;;;;;;;;;5029884;28;20029;-71
2022/12/24 06:27:19;;;;;;;1.98;1.88;;;;;;;;;;5030295;28;20377;-71
2022/12/24 06:29:45;;;;;;;0.10;0.10;;;;;;;;;;5029769;28;20372;-71
2022/12/24 06:32:11;;;;;;;0.10;0.10;;;;;;;;;;5030117;28;20207;-70
2022/12/24 06:34:36;;;;;;;0.10;0.10;;;;;;;;;;5029778;28;20080;-71
2022/12/24 06:37:02;;;;;;;0.10;0.10;;;;;;;;;;5029757;28;20029;-71
2022/12/24 06:39:27;;;;;;;0.10;0.10;;;;;;;;;;5029510;28;20026;-71
2022/12/24 06:41:53;;;;;;;0.30;0.30;;;;;;;;;;5019245;28;20068;-70
2022/12/24 06:44:18;;;;;;;0.20;0.20;;;;;;;;;;5013599;28;20584;-71
2022/12/24 06:46:44;;;;;;;0.30;0.30;;;;;;;;;;5027764;28;20481;-71
2022/12/24 06:49:09;;;;;;;0.10;0.10;;;;;;;;;;5029376;28;20033;-71
2022/12/24 06:51:34;;;;;;;0.10;0.10;;;;;;;;;;5029245;28;20465;-73
2022/12/24 06:54:00;;;;;;;0.20;0.20;;;;;;;;;;5029938;28;20414;-71
2022/12/24 06:56:25;;;;;;;0.13;0.13;;;;;;;;;;5028986;28;20029;-70
2022/12/24 06:58:51;;;;;;;0.10;0.10;;;;;;;;;;5028506;28;20108;-71
2022/12/24 07:01:18;;;;;;;0.10;0.10;;;;;;;;;;5017698;28;20120;-71
2022/12/24 07:03:45;;;;;;;0.10;0.10;;;;;;;;;;5027839;28;20519;-70
2022/12/24 07:06:16;;;;;;;1.02;0.98;;;;;;;;;;5027575;28;20029;-70
2022/12/24 07:08:41;;;;;;;0.10;0.10;;;;;;;;;;5027645;28;20092;-70
2022/12/24 07:11:07;;;;;;;0.10;0.10;;;;;;;;;;5029231;28;20130;-71
2022/12/24 07:13:33;;;;;;;0.20;0.20;;;;;;;;;;5028910;28;20108;-70
2022/12/24 07:15:59;;;;;;;0.15;0.15;;;;;;;;;;5027794;28;20035;-70
2022/12/24 07:18:25;;;;;;;0.10;0.10;;;;;;;;;;5028237;28;20132;-69
2022/12/24 07:20:50;;;;;;;0.10;0.10;;;;;;;;;;5029239;28;20108;-70
2022/12/24 07:23:16;;;;;;;0.13;0.13;;;;;;;;;;5029009;28;20069;-70
2022/12/24 07:25:42;;;;;;;2.38;2.22;;;;;;;;;;5029157;28;20033;-69
2022/12/24 07:28:07;;;;;;;0.10;0.10;;;;;;;;;;5027323;28;20025;-71
2022/12/24 07:30:32;;;;;;;0.10;0.10;;;;;;;;;;5021593;28;20044;-71
2022/12/24 07:32:58;;;;;;;0.43;0.43;;;;;;;;;;5017696;28;20134;-71
2022/12/24 07:35:23;;;;;;;0.20;0.20;;;;;;;;;;5009251;28;20050;-71
2022/12/24 07:37:49;;;;;;;0.10;0.10;;;;;;;;;;5008319;28;20394;-70
2022/12/24 07:40:14;;;;;;;0.10;0.10;;;;;;;;;;5009196;28;20026;-70
2022/12/24 07:42:40;;;;;;;0.17;0.17;;;;;;;;;;5023455;28;20043;-71
2022/12/24 07:45:05;;;;;;;0.10;0.10;;;;;;;;;;5023155;28;20182;-71
2022/12/24 07:47:31;;;;;;;0.38;0.38;;;;;;;;;;5024287;28;20037;-72
2022/12/24 07:49:56;;;;;;;0.17;0.17;;;;;;;;;;5027639;28;20030;-73
2022/12/24 07:52:22;;;;;;;0.47;0.47;;;;;;;;;;5029368;28;20037;-74
2022/12/24 07:54:47;;;;;;;0.10;0.10;;;;;;;;;;5032821;28;20038;-71
2022/12/24 07:57:13;;;;;;;0.55;0.55;;;;;;;;;;5031556;28;20087;-72
2022/12/24 07:59:38;;;;;;;0.10;0.10;;;;;;;;;;5032421;28;20505;-71
2022/12/24 08:02:04;;;;;;;0.10;0.10;;;;;;;;;;5021160;28;20084;-75
2022/12/24 08:04:35;;;;;;;0.25;0.25;;;;;;;;;;5027539;28;20045;-74
2022/12/24 08:07:04;;;;;;;0.38;0.38;;;;;;;;;;5012728;28;20109;-71
2022/12/24 08:09:34;;;;;;;0.50;0.50;;;;;;;;;;5012984;28;20037;-71
2022/12/24 08:12:01;;;;;;;0.20;0.20;;;;;;;;;;5026153;28;20538;-71
2022/12/24 08:14:27;;;;;;;0.52;0.52;;;;;;;;;;5038389;28;20032;-72
2022/12/24 08:16:52;;;;;;;0.10;0.10;;;;;;;;;;5043298;28;20029;-71
2022/12/24 08:19:18;;;;;;;0.55;0.55;;;;;;;;;;5031815;28;20121;-72
2022/12/24 08:21:43;;;;;;;0.15;0.15;;;;;;;;;;5024664;28;20030;-70
2022/12/24 08:24:08;;;;;;;0.10;0.10;;;;;;;;;;5031033;28;20148;-71
2022/12/24 08:26:34;;;;;;;2.83;0.68;;;;;;;;;;5032882;28;20018;-72
2022/12/24 08:29:00;;;;;;;0.50;0.50;;;;;;;;;;5042302;28;20036;-71
2022/12/24 08:31:25;;;;;;;0.17;0.17;;;;;;;;;;5047050;28;20035;-71
2022/12/24 08:33:51;;;;;;;0.20;0.20;;;;;;;;;;5031224;28;20051;-71
2022/12/24 08:36:16;;;;;;;0.30;0.30;;;;;;;;;;5018968;28;20065;-71
2022/12/24 08:38:42;;;;;;;0.10;0.10;;;;;;;;;;5020993;28;20465;-71
2022/12/24 08:41:07;;;;;;;0.10;0.10;;;;;;;;;;5029426;28;20435;-72
2022/12/24 08:43:33;;;;;;;0.10;0.10;;;;;;;;;;5029472;28;20434;-71
2022/12/24 08:46:05;;;;;;;0.10;0.10;;;;;;;;;;5021662;28;20377;-70
2022/12/24 08:48:31;;;;;;;0.10;0.10;;;;;;;;;;5017947;28;20029;-76
2022/12/24 08:50:57;;;;;;;0.10;0.10;;;;;;;;;;5033922;28;20023;-74
2022/12/24 08:53:22;;;;;;;0.10;0.10;;;;;;;;;;5042648;28;20040;-77
2022/12/24 08:55:48;;;;;;;0.10;0.10;;;;;;;;;;5036246;28;20026;-76
2022/12/24 08:58:13;;;;;;;0.65;0.52;;;;;;;;;;5016068;28;20030;-77
2022/12/24 09:00:39;;;;;;;0.17;0.17;;;;;;;;;;5009961;28;20438;-77
2022/12/24 09:03:04;;;;;;;0.25;0.25;;;;;;;;;;5025567;28;20056;-77
2022/12/24 09:05:29;;;;;;;0.10;0.10;;;;;;;;;;5017955;28;20030;-79
2022/12/24 09:07:55;;;;;;;0.63;0.63;;;;;;;;;;5018515;28;20030;-76
2022/12/24 09:10:21;;;;;;;0.17;0.17;;;;;;;;;;5019906;28;20025;-80
2022/12/24 09:12:46;;;;;;;0.20;0.20;;;;;;;;;;5018636;28;20065;-75
2022/12/24 09:15:13;;;;;;;0.20;0.20;;;;;;;;;;5020869;28;20021;-79
2022/12/24 09:17:38;;;;;;;0.10;0.10;;;;;;;;;;5021477;28;20477;-75
2022/12/24 09:20:05;;;;;;;0.88;0.85;;;;;;;;;;5019762;28;20029;-76
2022/12/24 09:22:33;;;;;;;0.38;0.38;;;;;;;;;;5044679;28;20095;-76
2022/12/24 09:24:58;;;;;;;0.10;0.10;;;;;;;;;;5027780;28;20036;-76
2022/12/24 09:27:24;;;;;;;1.05;1.05;;;;;;;;;;5029887;28;20017;-76
2022/12/24 09:29:49;;;;;;;0.28;0.28;;;;;;;;;;5029867;28;20029;-76
2022/12/24 09:32:15;;;;;;;0.10;0.10;;;;;;;;;;5034772;28;20575;-76
2022/12/24 09:34:40;;;;;;;0.10;0.10;;;;;;;;;;5026425;28;20419;-79
2022/12/24 09:37:07;;;;;;;1.75;0.77;;;;;;;;;;5027850;28;20048;-76
2022/12/24 09:39:32;;;;;;;0.10;0.10;;;;;;;;;;5026816;28;20029;-77
2022/12/24 09:42:16;;;;;;;0.10;0.10;;;;;;;;;;5028869;28;20037;-76
2022/12/24 09:44:47;;;;;;;0.40;0.40;;;;;;;;;;5027765;28;20041;-76
2022/12/24 09:47:22;;;;;;;0.43;0.43;;;;;;;;;;5027142;28;20719;-76
2022/12/24 09:49:49;;;;;;;0.20;0.20;;;;;;;;;;5028483;28;20026;-76
2022/12/24 09:52:21;;;;;;;0.13;0.13;;;;;;;;;;5028855;28;20104;-76
2022/12/24 09:54:51;;;;;;;0.10;0.10;;;;;;;;;;5021478;28;20065;-77
2022/12/24 09:57:22;;;;;;;0.20;0.20;;;;;;;;;;5019684;28;20083;-76
2022/12/24 09:59:48;;;;;;;0.10;0.10;;;;;;;;;;5021472;28;20039;-77
2022/12/24 10:02:15;;;;;;;0.10;0.10;;;;;;;;;;5008704;28;20029;-78
2022/12/24 10:04:41;;;;;;;0.50;0.50;;;;;;;;;;5030681;28;20049;-76
2022/12/24 10:07:16;;;;;;;1.08;1.08;;;;;;;;;;5034066;28;20022;-76
2022/12/24 10:09:57;;;;;;;0.30;0.30;;;;;;;;;;5030405;28;20041;-77
2022/12/24 10:12:31;;;;;;;0.10;0.10;;;;;;;;;;5036160;28;20380;-77
2022/12/24 10:15:02;;;;;;;3.40;2.65;;;;;;;;;;5029536;28;20051;-75
2022/12/24 10:17:45;;;;;;;0.30;0.30;;;;;;;;;;5029809;28;20132;-73
2022/12/24 10:20:23;;;;;;;0.52;0.52;;;;;;;;;;5029716;28;20030;-79
2022/12/24 10:22:58;;;;;;;0.20;0.20;;;;;;;;;;5026895;28;20034;-75
2022/12/24 10:25:29;;;;;;;0.10;0.10;;;;;;;;;;5025651;28;20025;-75
2022/12/24 10:27:56;;;;;;;0.35;0.35;;;;;;;;;;5019723;28;20107;-76
2022/12/24 10:30:22;;;;;;;0.10;0.10;;;;;;;;;;5011321;28;20530;-75
2022/12/24 10:32:49;;;;;;;0.20;0.20;;;;;;;;;;5017355;28;20029;-75
2022/12/24 10:35:14;;;;;;;0.10;0.10;;;;;;;;;;5026204;28;20484;-75
2022/12/24 10:37:41;;;;;;;0.25;0.25;;;;;;;;;;5027411;28;20029;-77
2022/12/24 10:40:11;;;;;;;0.10;0.10;;;;;;;;;;5027000;28;20465;-75
2022/12/24 10:42:38;;;;;;;0.10;0.10;;;;;;;;;;5027384;28;20025;-75
2022/12/24 10:45:06;;;;;;;0.20;0.20;;;;;;;;;;5025872;28;20033;-78
2022/12/24 10:47:35;;;;;;;0.25;0.25;;;;;;;;;;5028038;28;20045;-78
2022/12/24 10:50:24;;;;;;;0.20;0.20;;;;;;;;;;5027587;28;20083;-76
2022/12/24 10:52:52;;;;;;;0.10;0.10;;;;;;;;;;5024961;28;20465;-75
2022/12/24 10:55:17;;;;;;;0.13;0.13;;;;;;;;;;5027725;28;20555;-75
2022/12/24 10:57:44;;;;;;;0.13;0.13;;;;;;;;;;5027538;28;20108;-75
2022/12/24 11:00:19;;;;;;;2.13;2.03;;;;;;;;;;5026360;28;20037;-75
2022/12/24 11:02:45;;;;;;;0.10;0.10;;;;;;;;;;5028349;28;20036;-75
2022/12/24 11:05:29;;;;;;;0.10;0.10;;;;;;;;;;5016656;28;20038;-76
2022/12/24 11:08:13;;;;;;;1.35;0.68;;;;;;;;;;5024865;28;20041;-76
2022/12/24 11:10:40;;;;;;;6.32;1.85;;;;;;;;;;5028529;28;20080;-75
2022/12/24 11:13:16;;;;;;;0.30;0.30;;;;;;;;;;5029482;28;20148;-75
2022/12/24 11:15:42;;;;;;;0.50;0.50;;;;;;;;;;5030879;28;20026;-76
2022/12/24 11:18:13;;;;;;;0.20;0.20;;;;;;;;;;5036053;28;20045;-80
2022/12/24 11:20:38;;;;;;;0.20;0.20;;;;;;;;;;5016973;28;20021;-75
2022/12/24 11:23:04;;;;;;;0.20;0.20;;;;;;;;;;5029177;28;20495;-75
2022/12/24 11:25:36;;;;;;;0.63;0.50;;;;;;;;;;5028148;28;20100;-75
2022/12/24 11:28:22;;;;;;;2.13;1.40;;;;;;;;;;5029050;28;20041;-75
2022/12/24 11:30:58;;;;;;;0.10;0.10;;;;;;;;;;5032371;28;20123;-76
2022/12/24 11:33:24;;;;;;;0.15;0.15;;;;;;;;;;5033518;28;20032;-75
2022/12/24 11:36:15;;;;;;;0.20;0.20;;;;;;;;;;5032977;28;20381;-79
2022/12/24 11:38:41;;;;;;;0.20;0.20;;;;;;;;;;5028582;28;20160;-75
2022/12/24 11:41:10;;;;;;;0.20;0.20;;;;;;;;;;5031847;28;20141;-75
2022/12/24 11:49:11;;;;;;;1.75;1.65;;;;;;;;;;5065864;28;21074;-77
2022/12/24 11:51:37;;;;;;;0.20;0.20;;;;;;;;;;5047450;28;20028;-75
2022/12/24 11:54:14;;;;;;;0.20;0.20;;;;;;;;;;5046508;28;20096;-75
2022/12/24 11:56:43;;;;;;;0.32;0.32;;;;;;;;;;5047650;28;20033;-75
2022/12/24 11:59:13;;;;;;;0.20;0.20;;;;;;;;;;5046514;28;20112;-75
2022/12/24 12:01:44;;;;;;;0.13;0.13;;;;;;;;;;5052319;28;20032;-75
2022/12/24 12:04:12;;;;;;;0.15;0.15;;;;;;;;;;5047102;28;20025;-75
2022/12/24 12:06:45;;;;;;;0.38;0.38;;;;;;;;;;5045820;28;20029;-78
2022/12/24 12:09:31;;;;;;;0.32;0.32;;;;;;;;;;5044373;28;20034;-77
2022/12/24 12:12:12;;;;;;;0.35;0.35;;;;;;;;;;5008967;28;20559;-79
2022/12/24 12:20:12;;;;;;;0.20;0.20;;;;;;;;;;5086921;27;20481;-75
2022/12/24 12:22:44;;;;;;;0.20;0.20;;;;;;;;;;5086962;28;20048;-75
2022/12/24 12:25:30;;;;;;;0.20;0.20;;;;;;;;;;5086757;28;20078;-75
2022/12/24 12:27:57;;;;;;;0.20;0.20;;;;;;;;;;5069846;28;20045;-76
2022/12/24 12:30:23;;;;;;;0.32;0.32;;;;;;;;;;5066703;28;20025;-75
2022/12/24 12:33:01;;;;;;;0.30;0.30;;;;;;;;;;5066639;28;20528;-76
2022/12/24 12:35:29;;;;;;;0.22;0.22;;;;;;;;;;5065035;28;20033;-75
2022/12/24 12:38:00;;;;;;;0.20;0.20;;;;;;;;;;5065956;28;20025;-76
2022/12/24 12:40:36;;;;;;;0.25;0.25;;;;;;;;;;5064523;28;20029;-75
2022/12/24 12:43:11;;;;;;;0.20;0.20;;;;;;;;;;5064998;28;20025;-75
2022/12/24 12:45:57;;;;;;;0.15;0.15;;;;;;;;;;5065055;28;20032;-75
2022/12/24 12:48:23;;;;;;;0.20;0.20;;;;;;;;;;5049367;28;20044;-76
2022/12/24 12:50:52;;;;;;;0.20;0.20;;;;;;;;;;5058657;28;20569;-76
2022/12/24 12:53:18;;;;;;;;;;;;;;;;;;5060676;28;20032;-76
2022/12/24 12:55:43;;;;;;;0.20;0.20;;;;;;;;;;5060167;28;20367;-74
2022/12/24 12:58:12;;;;;;;0.30;0.30;;;;;;;;;;5064574;28;20078;-77
2022/12/24 13:00:40;;;;;;;0.20;0.20;;;;;;;;;;5064783;28;20031;-76
2022/12/24 13:03:24;;;;;;;0.20;0.20;;;;;;;;;;5056435;28;20687;-75
2022/12/24 13:05:52;;;;;;;0.20;0.20;;;;;;;;;;5060301;28;20079;-77
2022/12/24 13:08:37;;;;;;;0.90;0.82;;;;;;;;;;5059373;28;20064;-77
2022/12/24 13:11:08;;;;;;;0.22;0.22;;;;;;;;;;5057692;28;20033;-77
2022/12/24 13:13:34;;;;;;;0.30;0.30;;;;;;;;;;5076954;28;20147;-76
2022/12/24 13:16:18;;;;;;;0.30;0.30;;;;;;;;;;5061329;28;20441;-76
2022/12/24 13:18:47;;;;;;;0.30;0.30;;;;;;;;;;5060883;28;20045;-76
2022/12/24 13:21:17;;;;;;;0.28;0.28;;;;;;;;;;5063866;28;20036;-75
2022/12/24 13:23:42;;;;;;;0.20;0.20;;;;;;;;;;5052391;28;20061;-75
2022/12/24 13:26:10;;;;;;;0.20;0.20;;;;;;;;;;5045045;28;20139;-76
2022/12/24 13:28:36;;;;;;;0.20;0.20;;;;;;;;;;5054321;28;20025;-80
2022/12/24 13:31:01;;;;;;;0.20;0.20;;;;;;;;;;5052860;28;20040;-76
2022/12/24 13:33:33;;;;;;;0.20;0.20;;;;;;;;;;5049452;28;20488;-78
2022/12/24 13:36:08;;;;;;;0.20;0.20;;;;;;;;;;5047604;28;20033;-75
2022/12/24 13:38:43;;;;;;;0.30;0.30;;;;;;;;;;5046019;28;20073;-76
2022/12/24 13:41:28;;;;;;;0.30;0.30;;;;;;;;;;5021234;28;20029;-74
2022/12/24 13:44:05;;;;;;;0.20;0.20;;;;;;;;;;5047143;28;20029;-76
2022/12/24 13:46:51;;;;;;;0.30;0.30;;;;;;;;;;5037764;28;20028;-75
2022/12/24 13:49:35;;;;;;;0.20;0.20;;;;;;;;;;5044528;28;20029;-76
2022/12/24 13:52:27;;;;;;;0.20;0.20;;;;;;;;;;5046716;28;20037;-76
2022/12/24 13:55:13;;;;;;;0.20;0.20;;;;;;;;;;5049828;28;20037;-75
2022/12/24 13:57:40;;;;;;;0.20;0.20;;;;;;;;;;5033254;28;20029;-72
2022/12/24 14:00:07;;;;;;;0.45;0.45;;;;;;;;;;5030555;28;20373;-74
2022/12/24 14:02:39;;;;;;;0.20;0.20;;;;;;;;;;5031044;28;20575;-74
2022/12/24 14:05:07;;;;;;;0.20;0.20;;;;;;;;;;5038835;28;20029;-74
2022/12/24 14:07:33;;;;;;;0.20;0.20;;;;;;;;;;5039760;28;20498;-74
2022/12/24 14:09:59;;;;;;;0.40;0.40;;;;;;;;;;5030825;28;20017;-74
2022/12/24 14:12:32;;;;;;;0.20;0.20;;;;;;;;;;5056675;28;20510;-73
2022/12/24 14:15:18;;;;;;;0.28;0.28;;;;;;;;;;5028725;28;20494;-74
2022/12/24 14:17:46;;;;;;;0.30;0.30;;;;;;;;;;5037067;28;20472;-73
2022/12/24 14:20:13;;;;;;;0.23;0.23;;;;;;;;;;5040779;28;20400;-73
2022/12/24 14:22:43;;;;;;;0.20;0.20;;;;;;;;;;5050165;28;20053;-74
2022/12/24 14:25:08;;;;;;;0.20;0.20;;;;;;;;;;5050917;28;20033;-73
2022/12/24 14:27:54;;;;;;;0.20;0.20;;;;;;;;;;5043377;28;20033;-73
2022/12/24 14:30:19;;;;;;;0.20;0.20;;;;;;;;;;5050948;28;20064;-73
2022/12/24 14:32:45;;;;;;;0.20;0.20;;;;;;;;;;5050458;28;20052;-73
2022/12/24 14:35:15;;;;;;;0.20;0.20;;;;;;;;;;5048495;28;20021;-74
2022/12/24 14:37:43;;;;;;;0.20;0.20;;;;;;;;;;5048844;28;20056;-75
2022/12/24 14:40:15;;;;;;;0.20;0.20;;;;;;;;;;5045583;28;20041;-74
2022/12/24 14:42:46;;;;;;;0.20;0.20;;;;;;;;;;5037727;28;20025;-76
2022/12/24 14:45:21;;;;;;;1.00;1.00;;;;;;;;;;5038775;28;20078;-75
2022/12/24 14:47:49;;;;;;;0.15;0.15;;;;;;;;;;5041755;28;20116;-76
2022/12/24 14:50:23;;;;;;;0.20;0.20;;;;;;;;;;5054501;28;20027;-74
2022/12/24 14:53:07;;;;;;;0.20;0.20;;;;;;;;;;5046396;28;20112;-74
2022/12/24 14:55:41;;;;;;;0.20;0.20;;;;;;;;;;5046873;28;20411;-73
2022/12/24 14:58:21;;;;;;;0.28;0.28;;;;;;;;;;5047021;28;20453;-74
2022/12/24 15:00:47;;;;;;;0.25;0.25;;;;;;;;;;5048913;28;20083;-74
2022/12/24 15:03:14;;;;;;;2.58;1.08;;;;;;;;;;5049351;28;20025;-74
2022/12/24 15:05:40;;;;;;;0.28;0.28;;;;;;;;;;5041631;28;20025;-74
2022/12/24 15:08:13;;;;;;;0.20;0.20;;;;;;;;;;5038589;28;20033;-75